sensor_id;sensor_type;location;lat;lon;timestamp;pressure;altitude;pressure_sealevel;temperature;humidity
51999;BME280;38015;50.924;11.598;2023-04-03T00:01:52;100592.26;;;22.17;26.24
51999;BME280;38015;50.924;11.598;2023-04-03T00:04:23;100597.29;;;22.25;26.09
51999;BME280;38015;50.924;11.598;2023-04-03T00:06:53;100598.55;;;22.22;26.14
51999;BME280;38015;50.924;11.598;2023-04-03T00:09:24;100598.01;;;22.21;26.14
51999;BME280;38015;50.924;11.598;2023-04-03T00:11:54;100601.36;;;22.15;26.24
51999;BME280;38015;50.924;11.598;2023-04-03T00:14:25;100599.76;;;22.20;26.17
51999;BME280;38015;50.924;11.598;2023-04-03T00:16:57;100598.10;;;22.18;26.19
51999;BME280;38015;50.924;11.598;2023-04-03T00:19:26;100599.35;;;22.24;26.09
51999;BME280;38015;50.924;11.598;2023-04-03T00:21:56;100601.66;;;22.17;26.24
51999;BME280;38015;50.924;11.598;2023-04-03T00:24:27;100605.19;;;22.25;26.06
51999;BME280;38015;50.924;11.598;2023-04-03T00:26:57;100604.72;;;22.24;26.07
51999;BME280;38015;50.924;11.598;2023-04-03T00:29:28;100603.25;;;22.26;26.04
51999;BME280;38015;50.924;11.598;2023-04-03T00:31:59;100604.38;;;22.23;26.10
51999;BME280;38015;50.924;11.598;2023-04-03T00:34:29;100604.46;;;22.20;26.12
51999;BME280;38015;50.924;11.598;2023-04-03T00:36:59;100602.77;;;22.15;26.20
51999;BME280;38015;50.924;11.598;2023-04-03T00:39:30;100602.46;;;22.24;26.06
51999;BME280;38015;50.924;11.598;2023-04-03T00:42:00;100602.32;;;22.18;26.14
51999;BME280;38015;50.924;11.598;2023-04-03T00:47:05;100603.64;;;22.21;26.08
51999;BME280;38015;50.924;11.598;2023-04-03T00:49:32;100601.54;;;22.25;26.02
51999;BME280;38015;50.924;11.598;2023-04-03T00:52:04;100602.80;;;22.28;25.97
51999;BME280;38015;50.924;11.598;2023-04-03T00:54:35;100603.58;;;22.25;26.02
51999;BME280;38015;50.924;11.598;2023-04-03T00:57:08;100601.27;;;22.19;26.10
51999;BME280;38015;50.924;11.598;2023-04-03T00:59:36;100602.23;;;22.18;26.12
51999;BME280;38015;50.924;11.598;2023-04-03T01:02:04;100602.61;;;22.19;26.06
51999;BME280;38015;50.924;11.598;2023-04-03T01:04:37;100606.57;;;22.18;26.10
51999;BME280;38015;50.924;11.598;2023-04-03T01:07:08;100605.30;;;22.17;26.12
51999;BME280;38015;50.924;11.598;2023-04-03T01:09:36;100609.67;;;22.13;26.16
51999;BME280;38015;50.924;11.598;2023-04-03T01:12:13;100609.58;;;22.14;26.15
51999;BME280;38015;50.924;11.598;2023-04-03T01:14:39;100611.87;;;22.14;26.15
51999;BME280;38015;50.924;11.598;2023-04-03T01:19:43;100613.54;;;22.18;26.03
51999;BME280;38015;50.924;11.598;2023-04-03T01:22:16;100611.97;;;22.17;26.01
51999;BME280;38015;50.924;11.598;2023-04-03T01:24:41;100616.96;;;22.08;26.11
51999;BME280;38015;50.924;11.598;2023-04-03T01:27:10;100617.70;;;22.10;26.08
51999;BME280;38015;50.924;11.598;2023-04-03T01:29:40;100623.65;;;22.10;26.09
51999;BME280;38015;50.924;11.598;2023-04-03T01:32:11;100621.99;;;22.11;26.08
51999;BME280;38015;50.924;11.598;2023-04-03T01:34:41;100625.14;;;22.11;25.99
51999;BME280;38015;50.924;11.598;2023-04-03T01:37:11;100627.46;;;22.13;25.96
51999;BME280;38015;50.924;11.598;2023-04-03T01:39:42;100628.98;;;22.12;25.92
51999;BME280;38015;50.924;11.598;2023-04-03T01:42:12;100628.30;;;22.04;26.06
51999;BME280;38015;50.924;11.598;2023-04-03T01:44:45;100632.46;;;22.07;25.93
51999;BME280;38015;50.924;11.598;2023-04-03T01:47:13;100628.47;;;22.16;25.74
51999;BME280;38015;50.924;11.598;2023-04-03T01:49:44;100631.49;;;22.12;25.84
51999;BME280;38015;50.924;11.598;2023-04-03T01:52:16;100630.08;;;22.16;25.70
51999;BME280;38015;50.924;11.598;2023-04-03T01:54:45;100636.46;;;22.13;25.75
51999;BME280;38015;50.924;11.598;2023-04-03T01:57:16;100637.53;;;22.07;25.87
51999;BME280;38015;50.924;11.598;2023-04-03T01:59:46;100638.28;;;22.10;25.83
51999;BME280;38015;50.924;11.598;2023-04-03T02:02:16;100640.83;;;22.11;25.81
51999;BME280;38015;50.924;11.598;2023-04-03T02:04:47;100640.23;;;22.16;25.75
51999;BME280;38015;50.924;11.598;2023-04-03T02:07:17;100643.12;;;22.13;25.82
51999;BME280;38015;50.924;11.598;2023-04-03T02:09:48;100642.38;;;22.08;25.87
51999;BME280;38015;50.924;11.598;2023-04-03T02:12:18;100644.66;;;22.16;25.72
51999;BME280;38015;50.924;11.598;2023-04-03T02:14:49;100644.32;;;22.11;25.81
51999;BME280;38015;50.924;11.598;2023-04-03T02:17:19;100644.92;;;22.06;25.86
51999;BME280;38015;50.924;11.598;2023-04-03T02:19:51;100644.08;;;22.02;25.88
51999;BME280;38015;50.924;11.598;2023-04-03T02:22:20;100645.71;;;22.08;25.87
51999;BME280;38015;50.924;11.598;2023-04-03T02:24:51;100645.01;;;22.12;25.80
51999;BME280;38015;50.924;11.598;2023-04-03T02:27:21;100647.63;;;22.16;25.74
51999;BME280;38015;50.924;11.598;2023-04-03T02:29:52;100648.11;;;22.06;25.85
51999;BME280;38015;50.924;11.598;2023-04-03T02:32:22;100646.42;;;21.88;26.16
51999;BME280;38015;50.924;11.598;2023-04-03T02:34:54;100648.41;;;22.08;25.87
51999;BME280;38015;50.924;11.598;2023-04-03T02:37:23;100650.21;;;22.07;25.83
51999;BME280;38015;50.924;11.598;2023-04-03T02:39:54;100651.10;;;22.11;25.77
51999;BME280;38015;50.924;11.598;2023-04-03T02:42:24;100654.37;;;22.01;25.98
51999;BME280;38015;50.924;11.598;2023-04-03T02:44:55;100654.45;;;22.07;25.87
51999;BME280;38015;50.924;11.598;2023-04-03T02:47:25;100656.03;;;22.04;25.90
51999;BME280;38015;50.924;11.598;2023-04-03T02:49:56;100656.73;;;22.11;25.83
51999;BME280;38015;50.924;11.598;2023-04-03T02:52:26;100660.12;;;22.08;25.87
51999;BME280;38015;50.924;11.598;2023-04-03T02:54:57;100661.34;;;22.08;25.87
51999;BME280;38015;50.924;11.598;2023-04-03T02:57:27;100662.58;;;22.12;25.83
51999;BME280;38015;50.924;11.598;2023-04-03T02:59:58;100662.95;;;22.12;25.82
51999;BME280;38015;50.924;11.598;2023-04-03T03:02:28;100665.11;;;22.07;25.84
51999;BME280;38015;50.924;11.598;2023-04-03T03:04:59;100665.56;;;22.15;25.71
51999;BME280;38015;50.924;11.598;2023-04-03T03:07:29;100664.78;;;22.09;25.83
51999;BME280;38015;50.924;11.598;2023-04-03T03:10:00;100665.24;;;22.05;25.89
51999;BME280;38015;50.924;11.598;2023-04-03T03:12:30;100663.36;;;22.08;25.86
51999;BME280;38015;50.924;11.598;2023-04-03T03:15:02;100663.77;;;22.06;25.89
51999;BME280;38015;50.924;11.598;2023-04-03T03:17:31;100666.04;;;22.07;25.88
51999;BME280;38015;50.924;11.598;2023-04-03T03:20:02;100667.41;;;22.13;25.80
51999;BME280;38015;50.924;11.598;2023-04-03T03:22:33;100666.83;;;22.04;25.91
51999;BME280;38015;50.924;11.598;2023-04-03T03:25:03;100667.59;;;21.98;26.02
51999;BME280;38015;50.924;11.598;2023-04-03T03:27:34;100669.76;;;22.10;25.82
51999;BME280;38015;50.924;11.598;2023-04-03T03:30:06;100673.15;;;22.06;25.90
51999;BME280;38015;50.924;11.598;2023-04-03T03:32:34;100675.83;;;22.05;25.90
51999;BME280;38015;50.924;11.598;2023-04-03T03:35:07;100676.28;;;22.09;25.81
51999;BME280;38015;50.924;11.598;2023-04-03T03:37:35;100676.35;;;22.00;25.98
51999;BME280;38015;50.924;11.598;2023-04-03T03:40:07;100678.49;;;22.08;25.84
51999;BME280;38015;50.924;11.598;2023-04-03T03:42:36;100679.30;;;22.17;25.66
51999;BME280;38015;50.924;11.598;2023-04-03T03:45:08;100682.09;;;22.12;25.76
51999;BME280;38015;50.924;11.598;2023-04-03T03:47:37;100686.63;;;22.11;25.77
51999;BME280;38015;50.924;11.598;2023-04-03T03:50:09;100686.99;;;22.07;25.86
51999;BME280;38015;50.924;11.598;2023-04-03T03:52:40;100688.06;;;22.02;25.92
51999;BME280;38015;50.924;11.598;2023-04-03T03:55:10;100690.09;;;22.08;25.80
51999;BME280;38015;50.924;11.598;2023-04-03T03:57:39;100692.74;;;22.02;25.89
51999;BME280;38015;50.924;11.598;2023-04-03T04:00:10;100692.07;;;22.12;25.76
51999;BME280;38015;50.924;11.598;2023-04-03T04:02:42;100696.97;;;22.05;25.78
51999;BME280;38015;50.924;11.598;2023-04-03T04:05:11;100696.37;;;22.05;25.78
51999;BME280;38015;50.924;11.598;2023-04-03T04:07:41;100698.58;;;22.10;25.71
51999;BME280;38015;50.924;11.598;2023-04-03T04:10:12;100702.05;;;22.08;25.75
51999;BME280;38015;50.924;11.598;2023-04-03T04:12:42;100703.65;;;21.98;25.92
51999;BME280;38015;50.924;11.598;2023-04-03T04:15:13;100700.76;;;22.12;25.66
51999;BME280;38015;50.924;11.598;2023-04-03T04:17:43;100705.31;;;22.03;25.84
51999;BME280;38015;50.924;11.598;2023-04-03T04:20:14;100704.60;;;22.05;25.82
51999;BME280;38015;50.924;11.598;2023-04-03T04:22:44;100708.13;;;21.97;25.98
51999;BME280;38015;50.924;11.598;2023-04-03T04:25:15;100711.75;;;22.02;25.93
51999;BME280;38015;50.924;11.598;2023-04-03T04:27:47;100711.08;;;22.02;25.87
51999;BME280;38015;50.924;11.598;2023-04-03T04:30:16;100715.28;;;22.08;25.76
51999;BME280;38015;50.924;11.598;2023-04-03T04:32:46;100717.80;;;22.06;25.81
51999;BME280;38015;50.924;11.598;2023-04-03T04:35:17;100722.58;;;22.02;25.83
51999;BME280;38015;50.924;11.598;2023-04-03T04:37:47;100725.28;;;22.01;25.91
51999;BME280;38015;50.924;11.598;2023-04-03T04:40:18;100728.43;;;22.08;25.97
51999;BME280;38015;50.924;11.598;2023-04-03T04:42:48;100733.11;;;22.14;25.91
51999;BME280;38015;50.924;11.598;2023-04-03T04:45:19;100735.21;;;22.06;25.77
51999;BME280;38015;50.924;11.598;2023-04-03T04:47:49;100739.62;;;22.06;25.74
51999;BME280;38015;50.924;11.598;2023-04-03T04:50:20;100744.27;;;22.05;25.78
51999;BME280;38015;50.924;11.598;2023-04-03T04:52:51;100746.00;;;22.04;25.78
51999;BME280;38015;50.924;11.598;2023-04-03T04:55:21;100747.50;;;22.01;25.91
51999;BME280;38015;50.924;11.598;2023-04-03T04:57:51;100751.90;;;21.95;25.94
51999;BME280;38015;50.924;11.598;2023-04-03T05:00:23;100755.92;;;21.95;25.98
51999;BME280;38015;50.924;11.598;2023-04-03T05:02:52;100756.23;;;21.99;25.91
51999;BME280;38015;50.924;11.598;2023-04-03T05:05:23;100757.39;;;22.07;25.81
51999;BME280;38015;50.924;11.598;2023-04-03T05:07:53;100756.81;;;22.02;25.81
51999;BME280;38015;50.924;11.598;2023-04-03T05:10:24;100758.93;;;21.92;25.96
51999;BME280;38015;50.924;11.598;2023-04-03T05:12:54;100757.99;;;22.00;25.87
51999;BME280;38015;50.924;11.598;2023-04-03T05:15:25;100757.56;;;22.05;25.73
51999;BME280;38015;50.924;11.598;2023-04-03T05:17:55;100754.17;;;22.03;25.84
51999;BME280;38015;50.924;11.598;2023-04-03T05:20:26;100754.46;;;22.00;25.88
51999;BME280;38015;50.924;11.598;2023-04-03T05:22:56;100757.56;;;22.05;25.75
51999;BME280;38015;50.924;11.598;2023-04-03T05:25:27;100759.64;;;22.06;25.75
51999;BME280;38015;50.924;11.598;2023-04-03T05:27:57;100761.29;;;22.04;25.77
51999;BME280;38015;50.924;11.598;2023-04-03T05:30:28;100762.87;;;22.00;25.86
51999;BME280;38015;50.924;11.598;2023-04-03T05:32:58;100765.32;;;22.08;25.71
51999;BME280;38015;50.924;11.598;2023-04-03T05:35:29;100767.93;;;22.03;25.79
51999;BME280;38015;50.924;11.598;2023-04-03T05:37:59;100773.73;;;22.06;25.75
51999;BME280;38015;50.924;11.598;2023-04-03T05:40:29;100776.08;;;22.11;25.69
51999;BME280;38015;50.924;11.598;2023-04-03T05:43:00;100776.65;;;22.01;25.85
51999;BME280;38015;50.924;11.598;2023-04-03T05:45:31;100774.30;;;22.02;25.85
51999;BME280;38015;50.924;11.598;2023-04-03T05:48:01;100775.66;;;22.04;25.84
51999;BME280;38015;50.924;11.598;2023-04-03T05:50:32;100782.86;;;22.16;25.56
51999;BME280;38015;50.924;11.598;2023-04-03T05:53:03;100784.83;;;22.12;25.59
51999;BME280;38015;50.924;11.598;2023-04-03T05:55:33;100787.49;;;22.10;25.67
51999;BME280;38015;50.924;11.598;2023-04-03T05:58:03;100793.88;;;22.07;25.78
51999;BME280;38015;50.924;11.598;2023-04-03T06:00:33;100794.26;;;22.11;25.68
51999;BME280;38015;50.924;11.598;2023-04-03T06:03:04;100800.08;;;22.17;25.57
51999;BME280;38015;50.924;11.598;2023-04-03T06:05:35;100799.71;;;22.12;25.64
51999;BME280;38015;50.924;11.598;2023-04-03T06:08:05;100800.90;;;22.07;25.74
51999;BME280;38015;50.924;11.598;2023-04-03T06:10:36;100802.60;;;22.13;25.64
51999;BME280;38015;50.924;11.598;2023-04-03T06:13:07;100805.35;;;22.12;25.77
51999;BME280;38015;50.924;11.598;2023-04-03T06:15:37;100802.59;;;22.16;25.58
51999;BME280;38015;50.924;11.598;2023-04-03T06:18:07;100808.26;;;22.09;25.64
51999;BME280;38015;50.924;11.598;2023-04-03T06:20:37;100813.86;;;22.09;25.65
51999;BME280;38015;50.924;11.598;2023-04-03T06:23:09;100812.84;;;22.17;25.60
51999;BME280;38015;50.924;11.598;2023-04-03T06:25:38;100815.45;;;22.19;25.55
51999;BME280;38015;50.924;11.598;2023-04-03T06:28:09;100812.70;;;22.16;25.59
51999;BME280;38015;50.924;11.598;2023-04-03T06:30:39;100814.69;;;22.13;25.64
51999;BME280;38015;50.924;11.598;2023-04-03T06:33:10;100813.84;;;22.17;25.72
51999;BME280;38015;50.924;11.598;2023-04-03T06:35:40;100813.39;;;22.20;25.51
51999;BME280;38015;50.924;11.598;2023-04-03T06:38:12;100817.45;;;22.07;25.78
51999;BME280;38015;50.924;11.598;2023-04-03T06:40:41;100812.58;;;22.25;25.46
51999;BME280;38015;50.924;11.598;2023-04-03T06:43:13;100811.11;;;22.28;25.35
51999;BME280;38015;50.924;11.598;2023-04-03T06:45:43;100812.96;;;22.22;25.46
51999;BME280;38015;50.924;11.598;2023-04-03T06:48:13;100817.22;;;22.31;25.34
51999;BME280;38015;50.924;11.598;2023-04-03T06:50:44;100820.91;;;22.40;25.33
51999;BME280;38015;50.924;11.598;2023-04-03T06:53:16;100822.47;;;22.36;25.28
51999;BME280;38015;50.924;11.598;2023-04-03T06:55:44;100824.46;;;22.33;25.31
51999;BME280;38015;50.924;11.598;2023-04-03T06:58:15;100830.73;;;22.42;25.15
51999;BME280;38015;50.924;11.598;2023-04-03T07:00:45;100832.12;;;22.19;25.49
51999;BME280;38015;50.924;11.598;2023-04-03T07:03:15;100835.24;;;22.41;25.22
51999;BME280;38015;50.924;11.598;2023-04-03T07:05:46;100834.24;;;22.35;25.27
51999;BME280;38015;50.924;11.598;2023-04-03T07:08:16;100839.22;;;22.35;25.29
51999;BME280;38015;50.924;11.598;2023-04-03T07:10:47;100843.31;;;22.33;25.38
51999;BME280;38015;50.924;11.598;2023-04-03T07:13:17;100847.26;;;22.38;25.29
51999;BME280;38015;50.924;11.598;2023-04-03T07:15:48;100852.75;;;22.36;25.19
51999;BME280;38015;50.924;11.598;2023-04-03T07:18:19;100857.21;;;22.42;25.33
51999;BME280;38015;50.924;11.598;2023-04-03T07:20:49;100857.28;;;22.48;24.88
51999;BME280;38015;50.924;11.598;2023-04-03T07:23:19;100858.96;;;22.26;25.42
51999;BME280;38015;50.924;11.598;2023-04-03T07:25:51;100860.25;;;22.19;25.30
51999;BME280;38015;50.924;11.598;2023-04-03T07:28:21;100864.76;;;22.26;25.11
51999;BME280;38015;50.924;11.598;2023-04-03T07:30:53;100864.35;;;22.26;25.28
51999;BME280;38015;50.924;11.598;2023-04-03T07:33:22;100867.23;;;22.24;25.10
51999;BME280;38015;50.924;11.598;2023-04-03T07:35:52;100864.74;;;22.26;25.00
51999;BME280;38015;50.924;11.598;2023-04-03T07:38:22;100867.87;;;22.30;24.86
51999;BME280;38015;50.924;11.598;2023-04-03T07:40:53;100875.55;;;22.24;25.37
51999;BME280;38015;50.924;11.598;2023-04-03T07:43:23;100878.05;;;22.24;25.20
51999;BME280;38015;50.924;11.598;2023-04-03T07:45:54;100881.14;;;22.26;25.00
51999;BME280;38015;50.924;11.598;2023-04-03T07:48:25;100879.28;;;22.22;25.08
51999;BME280;38015;50.924;11.598;2023-04-03T07:50:59;100882.47;;;22.24;25.51
51999;BME280;38015;50.924;11.598;2023-04-03T07:53:27;100888.88;;;22.34;23.87
51999;BME280;38015;50.924;11.598;2023-04-03T07:55:57;100886.02;;;22.25;23.19
51999;BME280;38015;50.924;11.598;2023-04-03T07:58:27;100883.60;;;22.26;23.82
51999;BME280;38015;50.924;11.598;2023-04-03T08:00:57;100882.58;;;22.37;22.30
51999;BME280;38015;50.924;11.598;2023-04-03T08:03:27;100877.34;;;22.68;22.90
51999;BME280;38015;50.924;11.598;2023-04-03T08:06:03;100878.57;;;22.48;23.34
51999;BME280;38015;50.924;11.598;2023-04-03T08:08:28;100879.90;;;22.53;23.29
51999;BME280;38015;50.924;11.598;2023-04-03T08:11:00;100880.22;;;22.47;23.73
51999;BME280;38015;50.924;11.598;2023-04-03T08:13:30;100879.15;;;22.52;23.80
51999;BME280;38015;50.924;11.598;2023-04-03T08:16:09;100881.85;;;22.60;23.83
51999;BME280;38015;50.924;11.598;2023-04-03T08:18:30;100883.26;;;22.69;23.42
51999;BME280;38015;50.924;11.598;2023-04-03T08:21:07;100884.58;;;22.79;23.49
51999;BME280;38015;50.924;11.598;2023-04-03T08:23:33;100886.06;;;22.86;23.37
51999;BME280;38015;50.924;11.598;2023-04-03T08:26:08;100885.39;;;23.04;23.13
51999;BME280;38015;50.924;11.598;2023-04-03T08:28:32;100884.53;;;23.07;22.97
51999;BME280;38015;50.924;11.598;2023-04-03T08:31:04;100880.55;;;23.00;23.03
51999;BME280;38015;50.924;11.598;2023-04-03T08:33:34;100882.16;;;23.09;22.79
51999;BME280;38015;50.924;11.598;2023-04-03T08:36:05;100886.66;;;22.97;22.91
51999;BME280;38015;50.924;11.598;2023-04-03T08:38:34;100890.87;;;22.97;22.88
51999;BME280;38015;50.924;11.598;2023-04-03T08:41:11;100891.84;;;23.04;22.62
51999;BME280;38015;50.924;11.598;2023-04-03T08:43:43;100886.39;;;23.07;22.50
51999;BME280;38015;50.924;11.598;2023-04-03T08:46:11;100884.98;;;22.94;22.68
51999;BME280;38015;50.924;11.598;2023-04-03T08:48:39;100891.48;;;23.01;22.42
51999;BME280;38015;50.924;11.598;2023-04-03T08:51:14;100882.33;;;23.09;22.19
51999;BME280;38015;50.924;11.598;2023-04-03T08:53:44;100879.10;;;23.13;22.14
51999;BME280;38015;50.924;11.598;2023-04-03T08:56:09;100882.99;;;23.10;22.09
51999;BME280;38015;50.924;11.598;2023-04-03T08:58:42;100894.08;;;23.05;22.26
51999;BME280;38015;50.924;11.598;2023-04-03T09:01:18;100893.16;;;23.05;22.40
51999;BME280;38015;50.924;11.598;2023-04-03T09:03:41;100889.14;;;23.14;22.25
51999;BME280;38015;50.924;11.598;2023-04-03T09:06:13;100894.84;;;23.02;22.43
51999;BME280;38015;50.924;11.598;2023-04-03T09:08:43;100895.76;;;23.04;22.40
51999;BME280;38015;50.924;11.598;2023-04-03T09:11:19;100902.22;;;23.00;22.56
51999;BME280;38015;50.924;11.598;2023-04-03T09:13:45;100899.64;;;22.97;22.57
51999;BME280;38015;50.924;11.598;2023-04-03T09:16:20;100900.38;;;22.97;22.37
51999;BME280;38015;50.924;11.598;2023-04-03T09:18:45;100903.44;;;23.09;22.49
51999;BME280;38015;50.924;11.598;2023-04-03T09:21:17;100905.31;;;23.05;22.46
51999;BME280;38015;50.924;11.598;2023-04-03T09:23:45;100900.99;;;22.97;22.68
51999;BME280;38015;50.924;11.598;2023-04-03T09:26:15;100905.02;;;23.04;22.65
51999;BME280;38015;50.924;11.598;2023-04-03T09:28:43;100901.25;;;23.06;22.49
51999;BME280;38015;50.924;11.598;2023-04-03T09:31:20;100900.86;;;22.78;23.00
51999;BME280;38015;50.924;11.598;2023-04-03T09:33:44;100898.66;;;23.00;22.70
51999;BME280;38015;50.924;11.598;2023-04-03T09:36:14;100896.13;;;23.01;22.70
51999;BME280;38015;50.924;11.598;2023-04-03T09:38:45;100892.35;;;23.02;22.58
51999;BME280;38015;50.924;11.598;2023-04-03T09:41:17;100894.24;;;23.13;22.48
51999;BME280;38015;50.924;11.598;2023-04-03T09:43:52;100898.60;;;22.92;22.91
51999;BME280;38015;50.924;11.598;2023-04-03T09:46:18;100897.22;;;22.98;22.84
51999;BME280;38015;50.924;11.598;2023-04-03T09:48:51;100893.45;;;22.84;22.96
51999;BME280;38015;50.924;11.598;2023-04-03T09:51:16;100887.50;;;22.96;23.01
51999;BME280;38015;50.924;11.598;2023-04-03T09:53:47;100887.78;;;22.81;23.32
51999;BME280;38015;50.924;11.598;2023-04-03T09:56:21;100891.02;;;22.91;23.13
51999;BME280;38015;50.924;11.598;2023-04-03T09:58:49;100890.81;;;22.62;23.64
51999;BME280;38015;50.924;11.598;2023-04-03T10:01:28;100884.50;;;22.72;23.31
51999;BME280;38015;50.924;11.598;2023-04-03T10:06:22;100888.29;;;22.82;23.04
51999;BME280;38015;50.924;11.598;2023-04-03T10:08:59;100889.42;;;22.93;22.80
51999;BME280;38015;50.924;11.598;2023-04-03T10:11:22;100887.67;;;22.99;22.52
51999;BME280;38015;50.924;11.598;2023-04-03T10:13:54;100879.83;;;22.98;22.25
51999;BME280;38015;50.924;11.598;2023-04-03T10:16:26;100876.13;;;22.91;22.35
51999;BME280;38015;50.924;11.598;2023-04-03T10:19:02;100877.25;;;22.94;22.20
51999;BME280;38015;50.924;11.598;2023-04-03T10:21:34;100866.18;;;23.10;22.47
51999;BME280;38015;50.924;11.598;2023-04-03T10:23:58;100867.17;;;23.04;22.18
51999;BME280;38015;50.924;11.598;2023-04-03T10:26:31;100867.41;;;22.94;22.55
51999;BME280;38015;50.924;11.598;2023-04-03T10:29:00;100865.45;;;22.97;22.59
51999;BME280;38015;50.924;11.598;2023-04-03T10:31:28;100864.75;;;22.88;22.37
51999;BME280;38015;50.924;11.598;2023-04-03T10:34:01;100862.37;;;22.95;22.40
51999;BME280;38015;50.924;11.598;2023-04-03T10:36:33;100866.59;;;22.82;22.59
51999;BME280;38015;50.924;11.598;2023-04-03T10:39:02;100865.24;;;22.90;22.82
51999;BME280;38015;50.924;11.598;2023-04-03T10:41:35;100860.93;;;22.89;22.57
51999;BME280;38015;50.924;11.598;2023-04-03T10:44:05;100857.70;;;22.96;22.50
51999;BME280;38015;50.924;11.598;2023-04-03T10:46:30;100863.61;;;22.86;22.61
51999;BME280;38015;50.924;11.598;2023-04-03T10:51:32;100846.71;;;22.90;22.76
51999;BME280;38015;50.924;11.598;2023-04-03T10:54:07;100849.26;;;22.71;23.03
51999;BME280;38015;50.924;11.598;2023-04-03T10:56:33;100846.06;;;22.97;22.65
51999;BME280;38015;50.924;11.598;2023-04-03T10:59:07;100841.04;;;22.74;23.00
51999;BME280;38015;50.924;11.598;2023-04-03T11:01:34;100842.30;;;22.71;23.27
51999;BME280;38015;50.924;11.598;2023-04-03T11:04:02;100841.48;;;22.70;23.34
51999;BME280;38015;50.924;11.598;2023-04-03T11:06:36;100835.59;;;22.72;23.42
51999;BME280;38015;50.924;11.598;2023-04-03T11:09:03;100832.17;;;22.75;23.09
51999;BME280;38015;50.924;11.598;2023-04-03T11:11:35;100826.38;;;22.88;22.92
51999;BME280;38015;50.924;11.598;2023-04-03T11:14:04;100826.08;;;22.85;23.03
51999;BME280;38015;50.924;11.598;2023-04-03T11:16:39;100833.41;;;22.66;23.35
51999;BME280;38015;50.924;11.598;2023-04-03T11:19:11;100828.52;;;22.80;23.18
51999;BME280;38015;50.924;11.598;2023-04-03T11:21:37;100828.25;;;22.87;22.99
51999;BME280;38015;50.924;11.598;2023-04-03T11:24:09;100826.81;;;22.92;23.10
51999;BME280;38015;50.924;11.598;2023-04-03T11:26:38;100832.92;;;23.05;22.91
51999;BME280;38015;50.924;11.598;2023-04-03T11:29:08;100828.95;;;22.98;22.95
51999;BME280;38015;50.924;11.598;2023-04-03T11:31:46;100827.94;;;22.86;22.94
51999;BME280;38015;50.924;11.598;2023-04-03T11:34:17;100825.56;;;22.91;23.04
51999;BME280;38015;50.924;11.598;2023-04-03T11:36:43;100826.60;;;22.90;22.90
51999;BME280;38015;50.924;11.598;2023-04-03T11:39:15;100826.27;;;22.86;22.99
51999;BME280;38015;50.924;11.598;2023-04-03T11:41:39;100826.26;;;22.92;22.79
51999;BME280;38015;50.924;11.598;2023-04-03T11:51:42;100813.31;;;22.90;22.75
51999;BME280;38015;50.924;11.598;2023-04-03T11:56:40;100802.13;;;22.92;22.81
51999;BME280;38015;50.924;11.598;2023-04-03T11:59:19;100805.98;;;22.96;22.52
51999;BME280;38015;50.924;11.598;2023-04-03T12:01:44;100806.29;;;22.89;22.88
51999;BME280;38015;50.924;11.598;2023-04-03T12:04:14;100792.43;;;22.92;22.61
51999;BME280;38015;50.924;11.598;2023-04-03T12:06:52;100791.72;;;23.03;22.88
51999;BME280;38015;50.924;11.598;2023-04-03T12:09:22;100806.76;;;22.97;22.60
51999;BME280;38015;50.924;11.598;2023-04-03T12:11:43;100794.55;;;22.92;22.55
51999;BME280;38015;50.924;11.598;2023-04-03T12:14:16;100789.63;;;22.96;22.47
51999;BME280;38015;50.924;11.598;2023-04-03T12:16:46;100784.74;;;23.03;22.42
51999;BME280;38015;50.924;11.598;2023-04-03T12:24:24;100792.89;;;22.94;22.70
51999;BME280;38015;50.924;11.598;2023-04-03T12:27:00;100789.21;;;22.97;22.58
51999;BME280;38015;50.924;11.598;2023-04-03T12:29:21;100786.68;;;22.96;22.85
51999;BME280;38015;50.924;11.598;2023-04-03T12:31:58;100778.12;;;22.81;22.83
51999;BME280;38015;50.924;11.598;2023-04-03T12:34:26;100781.98;;;22.99;22.58
51999;BME280;38015;50.924;11.598;2023-04-03T12:36:58;100781.32;;;22.82;22.80
51999;BME280;38015;50.924;11.598;2023-04-03T12:41:56;100774.59;;;22.97;22.59
51999;BME280;38015;50.924;11.598;2023-04-03T12:44:28;100770.50;;;22.77;22.74
51999;BME280;38015;50.924;11.598;2023-04-03T12:46:52;100769.80;;;23.00;22.40
51999;BME280;38015;50.924;11.598;2023-04-03T12:49:33;100761.34;;;22.95;22.40
51999;BME280;38015;50.924;11.598;2023-04-03T12:51:52;100769.01;;;22.78;22.75
51999;BME280;38015;50.924;11.598;2023-04-03T12:54:26;100773.02;;;23.00;22.36
51999;BME280;38015;50.924;11.598;2023-04-03T12:59:24;100773.60;;;22.99;22.35
51999;BME280;38015;50.924;11.598;2023-04-03T13:01:53;100768.23;;;22.99;22.28
51999;BME280;38015;50.924;11.598;2023-04-03T13:04:23;100774.82;;;22.94;22.54
51999;BME280;38015;50.924;11.598;2023-04-03T13:06:54;100768.95;;;22.88;22.39
51999;BME280;38015;50.924;11.598;2023-04-03T13:09:26;100768.43;;;22.76;22.45
51999;BME280;38015;50.924;11.598;2023-04-03T13:11:59;100760.68;;;23.02;22.15
51999;BME280;38015;50.924;11.598;2023-04-03T13:14:26;100760.09;;;23.08;22.13
51999;BME280;38015;50.924;11.598;2023-04-03T13:16:57;100758.64;;;23.08;21.88
51999;BME280;38015;50.924;11.598;2023-04-03T13:19:27;100756.89;;;22.78;22.38
51999;BME280;38015;50.924;11.598;2023-04-03T13:22:00;100763.30;;;22.77;22.50
51999;BME280;38015;50.924;11.598;2023-04-03T13:24:29;100764.10;;;22.86;22.11
51999;BME280;38015;50.924;11.598;2023-04-03T13:26:59;100758.88;;;22.99;21.93